createdAt,value
2022-09-23T00:01:11.505Z,98046.25
2022-09-23T00:03:41.984Z,98054.28
2022-09-23T00:06:11.174Z,98048.13
2022-09-23T00:08:38.730Z,98042.25
2022-09-23T00:11:14.100Z,98042.03
2022-09-23T00:13:42.982Z,98044.44
2022-09-23T00:16:15.750Z,98039.13
2022-09-23T00:18:43.469Z,98036.91
2022-09-23T00:21:12.568Z,98033.59
2022-09-23T00:23:40.682Z,98032.44
2022-09-23T00:26:09.511Z,98020.75
2022-09-23T00:28:36.077Z,98026.59
2022-09-23T00:31:11.281Z,98021.88
2022-09-23T00:33:40.500Z,98014.56
2022-09-23T00:36:11.093Z,98019.78
2022-09-23T00:38:38.330Z,98027.19
2022-09-23T00:41:05.647Z,98015.69
2022-09-23T00:43:40.988Z,98018.00
2022-09-23T00:46:10.155Z,98012.94
2022-09-23T00:48:41.248Z,98017.84
2022-09-23T00:51:12.873Z,98018.88
2022-09-23T00:53:39.947Z,98029.59
2022-09-23T00:56:09.578Z,98031.25
2022-09-23T00:58:39.859Z,98024.97
2022-09-23T01:01:06.508Z,98020.19
2022-09-23T01:03:33.104Z,98020.38
2022-09-23T01:05:59.931Z,98013.81
2022-09-23T01:08:28.023Z,98008.16
2022-09-23T01:11:14.786Z,98010.44
2022-09-23T01:13:46.924Z,98009.09
2022-09-23T01:16:43.415Z,98002.66
2022-09-23T01:19:36.345Z,98005.44
2022-09-23T01:22:42.809Z,98011.94
2022-09-23T01:25:35.252Z,98007.66
2022-09-23T01:29:03.721Z,97994.03
2022-09-23T01:31:56.938Z,97995.81
2022-09-23T01:34:47.219Z,98000.41
2022-09-23T01:38:09.343Z,97998.31
2022-09-23T01:41:15.576Z,97999.56
2022-09-23T01:43:58.060Z,97996.44
2022-09-23T01:46:32.578Z,97998.06
2022-09-23T01:58:17.197Z,97991.00
2022-09-23T02:00:54.789Z,97999.34
2022-09-23T02:03:27.412Z,97992.34
2022-09-23T02:05:59.425Z,97996.97
2022-09-23T02:08:33.207Z,97996.69
2022-09-23T02:11:07.807Z,97986.31
2022-09-23T02:13:48.008Z,97993.09
2022-09-23T02:16:39.449Z,97988.19
2022-09-23T02:19:34.975Z,97986.31
2022-09-23T02:22:24.803Z,97988.63
2022-09-23T02:24:51.835Z,97978.38
2022-09-23T02:27:32.893Z,97983.16
2022-09-23T02:30:23.011Z,97978.34
2022-09-23T02:33:20.407Z,97988.28
2022-09-23T02:36:05.990Z,97975.50
2022-09-23T02:38:51.184Z,97978.03
2022-09-23T02:41:28.698Z,97982.44
2022-09-23T02:44:04.837Z,97976.59
2022-09-23T02:46:32.543Z,97972.63
2022-09-23T02:49:26.701Z,97978.50
2022-09-23T02:51:54.567Z,97970.19
2022-09-23T02:54:29.024Z,97976.69
2022-09-23T02:56:57.341Z,97964.34
2022-09-23T02:59:24.417Z,97967.00
2022-09-23T03:02:22.345Z,97958.63
2022-09-23T03:05:11.319Z,97971.44
2022-09-23T03:08:19.295Z,97956.94
2022-09-23T03:11:05.245Z,97962.88
2022-09-23T03:13:57.263Z,97954.75
2022-09-23T03:16:48.965Z,97960.13
2022-09-23T03:19:29.406Z,97948.75
2022-09-23T03:22:21.373Z,97941.13
2022-09-23T03:24:53.871Z,97945.72
2022-09-23T03:27:25.850Z,97946.03
2022-09-23T03:29:54.294Z,97948.50
2022-09-23T03:32:24.660Z,97946.09
2022-09-23T03:34:54.268Z,97941.94
2022-09-23T03:37:26.305Z,97938.25
2022-09-23T03:40:21.987Z,97936.09
2022-09-23T03:42:49.088Z,97930.97
2022-09-23T03:45:20.389Z,97928.84
2022-09-23T03:47:47.153Z,97929.84
2022-09-23T03:50:14.191Z,97940.69
2022-09-23T03:52:40.808Z,97945.97
2022-09-23T03:55:08.347Z,97943.84
2022-09-23T03:57:35.394Z,97940.13
2022-09-23T04:00:02.406Z,97941.97
2022-09-23T04:02:29.290Z,97938.53
2022-09-23T04:04:56.085Z,97930.69
2022-09-23T04:07:22.810Z,97937.91
2022-09-23T04:09:49.658Z,97938.38
2022-09-23T04:12:16.676Z,97944.00
2022-09-23T04:14:44.758Z,97942.09
2022-09-23T04:17:11.887Z,97935.06
2022-09-23T04:19:38.426Z,97939.41
2022-09-23T04:22:05.796Z,97933.06
2022-09-23T04:24:32.540Z,97935.34
2022-09-23T04:26:59.134Z,97938.56
2022-09-23T04:29:26.426Z,97941.84
2022-09-23T04:31:53.575Z,97939.00
2022-09-23T04:34:20.654Z,97946.09
2022-09-23T04:36:48.547Z,97937.81
2022-09-23T04:39:16.845Z,97938.59
2022-09-23T04:41:44.920Z,97939.97
2022-09-23T04:44:12.870Z,97943.72
2022-09-23T04:46:41.049Z,97940.25
2022-09-23T04:49:08.282Z,97941.53
2022-09-23T04:51:35.199Z,97943.53
2022-09-23T04:54:01.813Z,97947.13
2022-09-23T04:56:32.656Z,97950.44
2022-09-23T04:59:01.787Z,97943.84
2022-09-23T05:01:31.281Z,97943.69
2022-09-23T05:04:02.493Z,97948.13
2022-09-23T05:06:36.366Z,97944.97
2022-09-23T05:09:06.632Z,97952.66
2022-09-23T05:11:34.593Z,97943.91
2022-09-23T05:14:01.436Z,97948.19
2022-09-23T05:16:28.125Z,97954.06
2022-09-23T05:18:54.713Z,97951.84
2022-09-23T05:21:24.147Z,97959.00
2022-09-23T05:23:54.972Z,97964.25
2022-09-23T05:26:24.187Z,97956.59
2022-09-23T05:28:50.827Z,97964.72
2022-09-23T05:31:20.713Z,97962.91
2022-09-23T05:33:57.430Z,97960.09
2022-09-23T05:36:25.141Z,97966.91
2022-09-23T05:38:52.628Z,97965.06
2022-09-23T05:41:23.107Z,97971.34
2022-09-23T05:43:54.089Z,97973.78
2022-09-23T05:46:29.286Z,97973.66
2022-09-23T05:49:01.753Z,97970.81
2022-09-23T05:51:31.111Z,97973.59
2022-09-23T05:53:58.902Z,97971.53
2022-09-23T05:56:27.557Z,97970.06
2022-09-23T05:58:56.154Z,97971.25
2022-09-23T06:01:25.583Z,97969.91
2022-09-23T06:03:53.766Z,97974.31
2022-09-23T06:06:26.102Z,97966.53
2022-09-23T06:08:53.011Z,97973.09
2022-09-23T06:11:21.539Z,97971.66
2022-09-23T06:13:49.347Z,97966.47
2022-09-23T06:16:16.541Z,97967.13
2022-09-23T06:18:45.170Z,97961.22
2022-09-23T06:21:16.527Z,97962.06
2022-09-23T06:23:44.311Z,97960.63
2022-09-23T06:26:12.857Z,97967.16
2022-09-23T06:28:41.000Z,97966.78
2022-09-23T06:31:13.639Z,97962.53
2022-09-23T06:33:42.046Z,97968.09
2022-09-23T06:36:09.648Z,97970.81
2022-09-23T06:38:39.888Z,97974.25
2022-09-23T06:41:07.071Z,97973.53
2022-09-23T06:43:33.919Z,97978.06
2022-09-23T06:46:02.020Z,97981.28
2022-09-23T06:48:29.906Z,97985.09
2022-09-23T06:51:02.547Z,97985.94
2022-09-23T06:53:32.198Z,97985.75
2022-09-23T06:56:05.315Z,97967.06
2022-09-23T06:58:34.000Z,97965.81
2022-09-23T07:01:01.810Z,97968.94
2022-09-23T07:03:29.220Z,97965.88
2022-09-23T07:05:56.516Z,97975.06
2022-09-23T07:08:24.898Z,97973.81
2022-09-23T07:10:53.165Z,97979.97
2022-09-23T07:13:20.246Z,97981.47
2022-09-23T07:15:54.492Z,97989.69
2022-09-23T07:18:25.520Z,97979.84
2022-09-23T07:20:53.028Z,97983.97
2022-09-23T07:23:19.822Z,97986.59
2022-09-23T07:25:46.915Z,97982.97
2022-09-23T07:28:13.686Z,97978.69
2022-09-23T07:30:51.659Z,97977.88
2022-09-23T07:33:31.575Z,97976.25
2022-09-23T07:35:59.106Z,97977.47
2022-09-23T07:38:31.453Z,97973.06
2022-09-23T07:41:06.539Z,97978.00
2022-09-23T07:43:33.550Z,97975.06
2022-09-23T07:46:04.957Z,97989.50
2022-09-23T07:48:34.265Z,97983.66
2022-09-23T07:51:10.978Z,97981.56
2022-09-23T07:53:38.050Z,97991.56
2022-09-23T07:56:08.674Z,97989.06
2022-09-23T07:58:35.639Z,97984.59
2022-09-23T08:01:10.302Z,97986.47
2022-09-23T08:03:37.455Z,97989.59
2022-09-23T08:06:09.044Z,97983.81
2022-09-23T08:08:39.348Z,97987.66
2022-09-23T08:11:08.408Z,97990.59
2022-09-23T08:13:34.950Z,97989.84
2022-09-23T08:16:01.847Z,97988.59
2022-09-23T08:18:29.689Z,97986.41
2022-09-23T08:20:56.242Z,97992.25
2022-09-23T08:23:23.167Z,97985.34
2022-09-23T08:25:59.530Z,97977.53
2022-09-23T08:28:26.922Z,97975.28
2022-09-23T08:30:53.620Z,97977.56
2022-09-23T08:33:23.348Z,97973.78
2022-09-23T08:35:51.133Z,97967.88
2022-09-23T08:38:17.937Z,97970.47
2022-09-23T08:40:49.502Z,97972.13
2022-09-23T08:43:33.844Z,97969.59
2022-09-23T08:46:08.659Z,97965.69
2022-09-23T08:48:40.314Z,97968.25
2022-09-23T08:51:12.689Z,97980.34
2022-09-23T08:53:40.385Z,97963.91
2022-09-23T08:56:14.401Z,97956.31
2022-09-23T08:59:11.326Z,97950.00
2022-09-23T09:01:47.935Z,97948.44
2022-09-23T09:04:28.550Z,97953.59
2022-09-23T09:07:38.625Z,97944.91
2022-09-23T09:10:19.377Z,97939.56
2022-09-23T09:13:06.778Z,97933.44
2022-09-23T09:15:43.275Z,97935.47
2022-09-23T09:18:20.871Z,97925.28
2022-09-23T09:21:08.507Z,97930.75
2022-09-23T09:23:54.678Z,97920.22
2022-09-23T09:26:30.405Z,97916.59
2022-09-23T09:29:31.189Z,97916.41
2022-09-23T09:32:00.423Z,97916.97
2022-09-23T09:35:05.651Z,97912.25
2022-09-23T09:37:43.108Z,97907.16
2022-09-23T09:40:13.219Z,97913.31
2022-09-23T09:42:41.947Z,97907.66
2022-09-23T09:45:43.569Z,97900.34
2022-09-23T09:48:17.649Z,97900.50
2022-09-23T09:50:45.947Z,97893.53
2022-09-23T09:53:35.787Z,97896.59
2022-09-23T09:56:06.881Z,97886.34
2022-09-23T09:58:55.379Z,97884.47
2022-09-23T10:01:28.913Z,97878.44
2022-09-23T10:03:59.501Z,97875.50
2022-09-23T10:06:32.465Z,97879.44
2022-09-23T10:09:19.475Z,97876.13
2022-09-23T10:12:15.514Z,97886.28
2022-09-23T10:14:47.069Z,97881.81
2022-09-23T10:17:34.029Z,97874.00
2022-09-23T10:20:07.141Z,97874.84
2022-09-23T10:22:39.762Z,97874.13
2022-09-23T10:25:16.920Z,97869.69
2022-09-23T10:27:45.544Z,97863.75
2022-09-23T10:30:32.631Z,97870.97
2022-09-23T10:32:59.257Z,97872.03
2022-09-23T10:35:26.553Z,97864.69
2022-09-23T10:37:53.076Z,97860.63
2022-09-23T10:41:02.007Z,97858.41
2022-09-23T10:44:24.744Z,97849.84
2022-09-23T10:47:09.599Z,97843.13
2022-09-23T10:50:03.807Z,97841.91
2022-09-23T10:53:02.666Z,97839.66
2022-09-23T10:55:54.953Z,97835.63
2022-09-23T10:58:58.896Z,97833.59
2022-09-23T11:01:38.452Z,97830.03
2022-09-23T11:04:41.484Z,97819.94
2022-09-23T11:07:14.574Z,97818.00
2022-09-23T11:09:41.244Z,97817.31
2022-09-23T11:13:01.867Z,97812.88
2022-09-23T11:16:16.301Z,97795.88
2022-09-23T11:19:15.011Z,97796.31
2022-09-23T11:45:32.366Z,97768.06
2022-09-23T11:48:05.440Z,97759.38
2022-09-23T11:50:48.068Z,97761.25
2022-09-23T11:53:14.539Z,97755.34
2022-09-23T11:56:09.679Z,97754.03
2022-09-23T11:58:59.731Z,97750.69
2022-09-23T12:01:42.001Z,97746.94
2022-09-23T12:04:33.470Z,97742.88
2022-09-23T12:07:12.770Z,97737.53
2022-09-23T12:09:58.506Z,97735.78
2022-09-23T12:13:10.563Z,97731.16
2022-09-23T12:16:06.231Z,97734.34
2022-09-23T12:19:11.172Z,97737.69
2022-09-23T12:21:56.543Z,97736.06
2022-09-23T12:24:46.793Z,97737.75
2022-09-23T12:27:39.420Z,97727.28
2022-09-23T12:30:15.625Z,97728.03
2022-09-23T12:32:43.103Z,97726.28
2022-09-23T12:35:32.641Z,97727.88
2022-09-23T12:38:01.300Z,97724.34
2022-09-23T12:40:35.526Z,97708.16
2022-09-23T12:43:02.690Z,97719.00
2022-09-23T12:45:39.505Z,97714.94
2022-09-23T12:48:45.373Z,97717.09
2022-09-23T12:51:17.950Z,97711.59
2022-09-23T12:54:08.730Z,97706.97
2022-09-23T12:56:59.042Z,97702.00
2022-09-23T12:59:32.063Z,97702.28
2022-09-23T13:02:21.088Z,97688.34
2022-09-23T13:05:18.126Z,97691.09
2022-09-23T13:07:49.998Z,97687.44
2022-09-23T13:10:19.297Z,97685.91
2022-09-23T13:12:46.741Z,97678.53
2022-09-23T13:15:33.969Z,97681.59
2022-09-23T13:19:08.391Z,97673.59
2022-09-23T13:22:08.798Z,97673.03
2022-09-23T13:25:02.971Z,97671.84
2022-09-23T13:27:34.060Z,97670.53
2022-09-23T13:30:07.564Z,97663.28
2022-09-23T13:32:48.458Z,97654.72
2022-09-23T13:35:43.487Z,97655.59
2022-09-23T13:38:26.003Z,97650.06
2022-09-23T13:41:00.259Z,97643.72
2022-09-23T13:43:41.442Z,97646.84
2022-09-23T13:46:16.065Z,97641.94
2022-09-23T13:48:45.302Z,97640.16
2022-09-23T13:51:20.854Z,97640.91
2022-09-23T13:53:54.347Z,97636.22
2022-09-23T13:56:22.050Z,97634.19
2022-09-23T13:58:48.889Z,97626.66
2022-09-23T14:01:33.911Z,97627.63
2022-09-23T14:04:02.606Z,97624.75
2022-09-23T14:06:31.276Z,97628.56
2022-09-23T14:09:01.332Z,97621.63
2022-09-23T14:11:35.413Z,97620.28
2022-09-23T14:14:07.519Z,97615.97
2022-09-23T14:16:37.628Z,97612.81
2022-09-23T14:19:04.636Z,97612.97
2022-09-23T14:21:37.421Z,97612.72
2022-09-23T14:24:34.403Z,97607.19
2022-09-23T14:27:12.618Z,97610.81
2022-09-23T14:29:42.310Z,97611.28
2022-09-23T14:32:14.367Z,97603.84
2022-09-23T14:35:18.795Z,97601.75
2022-09-23T14:38:06.671Z,97604.97
2022-09-23T14:40:52.067Z,97602.09
2022-09-23T14:43:27.296Z,97593.38
2022-09-23T14:45:57.100Z,97589.63
2022-09-23T14:48:31.606Z,97587.94
2022-09-23T14:51:03.817Z,97587.69
2022-09-23T14:53:45.760Z,97589.00
2022-09-23T14:56:18.531Z,97583.50
2022-09-23T14:58:57.092Z,97585.84
2022-09-23T15:01:39.143Z,97582.56
2022-09-23T15:04:16.330Z,97584.94
2022-09-23T15:06:51.532Z,97581.63
2022-09-23T15:09:23.847Z,97573.81
2022-09-23T15:11:57.461Z,97583.97
2022-09-23T15:14:37.692Z,97581.94
2022-09-23T15:17:07.578Z,97579.91
2022-09-23T15:19:36.373Z,97577.88
2022-09-23T15:22:03.160Z,97578.31
2022-09-23T15:24:45.064Z,97577.16
2022-09-23T15:27:37.654Z,97573.69
2022-09-23T15:30:17.205Z,97576.16
2022-09-23T15:32:45.381Z,97572.88
2022-09-23T15:35:19.844Z,97573.19
2022-09-23T15:37:49.538Z,97572.78
2022-09-23T15:40:28.448Z,97571.69
2022-09-23T15:42:57.923Z,97566.22
2022-09-23T15:46:05.294Z,97567.25
2022-09-23T15:48:39.373Z,97565.41
2022-09-23T15:51:09.832Z,97559.34
2022-09-23T15:53:38.188Z,97569.22
2022-09-23T15:56:05.220Z,97559.69
2022-09-23T15:58:32.673Z,97557.97
2022-09-23T16:01:00.980Z,97561.47
2022-09-23T16:03:30.352Z,97557.00
2022-09-23T16:06:01.210Z,97552.38
2022-09-23T16:08:29.303Z,97556.72
2022-09-23T16:10:56.248Z,97552.25
2022-09-23T16:13:23.109Z,97557.44
2022-09-23T16:15:49.999Z,97556.44
2022-09-23T16:18:16.557Z,97546.59
2022-09-23T16:20:45.698Z,97550.22
2022-09-23T16:23:37.508Z,97551.25
2022-09-23T16:26:15.283Z,97549.66
2022-09-23T16:28:42.654Z,97545.19
2022-09-23T16:31:11.258Z,97549.09
2022-09-23T16:33:39.416Z,97547.50
2022-09-23T16:36:12.280Z,97555.44
2022-09-23T16:38:38.883Z,97542.00
2022-09-23T16:41:06.842Z,97547.34
2022-09-23T16:43:39.504Z,97551.84
2022-09-23T16:46:07.699Z,97558.31
2022-09-23T16:48:34.624Z,97549.06
2022-09-23T16:51:05.159Z,97557.75
2022-09-23T16:53:31.965Z,97548.50
2022-09-23T16:55:58.703Z,97548.94
2022-09-23T16:58:25.382Z,97556.88
2022-09-23T17:01:16.030Z,97559.72
2022-09-23T17:03:43.675Z,97553.09
2022-09-23T17:06:14.780Z,97553.34
2022-09-23T17:08:42.762Z,97553.59
2022-09-23T17:11:14.383Z,97550.56
2022-09-23T17:13:42.377Z,97555.63
2022-09-23T17:16:23.237Z,97551.69
2022-09-23T17:18:50.122Z,97558.91
2022-09-23T17:21:16.974Z,97557.13
2022-09-23T17:23:43.602Z,97551.19
2022-09-23T17:26:12.385Z,97552.47
2022-09-23T17:28:39.383Z,97555.06
2022-09-23T17:31:07.199Z,97550.16
2022-09-23T17:33:37.701Z,97547.25
2022-09-23T17:36:09.225Z,97548.97
2022-09-23T17:38:36.512Z,97549.78
2022-09-23T17:41:07.159Z,97546.44
2022-09-23T17:43:33.844Z,97549.69
2022-09-23T17:46:06.799Z,97557.84
2022-09-23T17:48:38.460Z,97554.66
2022-09-23T17:51:17.453Z,97550.56
2022-09-23T17:53:45.617Z,97551.56
2022-09-23T17:56:18.688Z,97555.41
2022-09-23T17:58:46.677Z,97555.28
2022-09-23T18:01:16.469Z,97552.19
2022-09-23T18:03:46.378Z,97560.09
2022-09-23T18:06:19.241Z,97557.03
2022-09-23T18:08:58.099Z,97565.25
2022-09-23T18:11:29.202Z,97564.34
2022-09-23T18:14:01.211Z,97555.59
2022-09-23T18:16:30.674Z,97562.44
2022-09-23T18:18:59.455Z,97565.56
2022-09-23T18:21:31.887Z,97563.97
2022-09-23T18:24:15.625Z,97561.66
2022-09-23T18:26:46.719Z,97564.06
2022-09-23T18:29:16.674Z,97566.81
2022-09-23T18:31:45.008Z,97570.66
2022-09-23T18:34:16.863Z,97563.41
2022-09-23T18:36:44.218Z,97556.72
2022-09-23T18:39:11.354Z,97560.44
2022-09-23T18:41:38.333Z,97561.72
2022-09-23T18:44:05.173Z,97560.25
2022-09-23T18:46:31.966Z,97556.78
2022-09-23T18:49:18.054Z,97563.72
2022-09-23T18:51:54.425Z,97557.19
2022-09-23T18:54:22.404Z,97565.78
2022-09-23T18:56:51.962Z,97565.66
2022-09-23T18:59:20.862Z,97566.19
2022-09-23T19:01:49.944Z,97568.94
2022-09-23T19:04:19.863Z,97559.13
2022-09-23T19:06:47.384Z,97565.72
2022-09-23T19:09:18.212Z,97566.66
2022-09-23T19:11:45.276Z,97563.41
2022-09-23T19:14:12.845Z,97561.22
2022-09-23T19:16:41.350Z,97561.63
2022-09-23T19:19:08.905Z,97564.22
2022-09-23T19:21:35.708Z,97552.59
2022-09-23T19:24:05.437Z,97561.75
2022-09-23T19:26:37.755Z,97548.31
2022-09-23T19:29:08.255Z,97554.94
2022-09-23T19:31:42.609Z,97563.53
2022-09-23T19:34:23.894Z,97559.91
2022-09-23T19:36:51.619Z,97559.75
2022-09-23T19:39:31.139Z,97559.41
2022-09-23T19:41:59.069Z,97562.53
2022-09-23T19:44:26.726Z,97557.84
2022-09-23T19:46:56.681Z,97561.66
2022-09-23T19:49:24.733Z,97559.31
2022-09-23T19:51:51.853Z,97562.44
2022-09-23T19:54:20.839Z,97561.19
2022-09-23T19:56:51.052Z,97562.66
2022-09-23T19:59:19.223Z,97562.66
2022-09-23T20:01:46.382Z,97556.31
2022-09-23T20:04:13.093Z,97556.69
2022-09-23T20:06:39.739Z,97564.16
2022-09-23T20:09:06.727Z,97563.25
2022-09-23T20:11:33.570Z,97567.84
2022-09-23T20:14:03.906Z,97564.00
2022-09-23T20:16:35.819Z,97564.97
2022-09-23T20:19:04.540Z,97570.41
2022-09-23T20:21:32.029Z,97563.91
2022-09-23T20:23:58.969Z,97566.25
2022-09-23T20:26:44.594Z,97567.00
2022-09-23T20:29:11.913Z,97570.66
2022-09-23T20:31:40.438Z,97563.03
2022-09-23T20:34:08.314Z,97559.22
2022-09-23T20:36:36.033Z,97560.50
2022-09-23T20:39:05.929Z,97560.50
2022-09-23T20:41:36.773Z,97561.59
2022-09-23T20:44:06.297Z,97562.16
2022-09-23T20:46:33.434Z,97561.25
2022-09-23T20:49:02.008Z,97564.16
2022-09-23T20:51:28.770Z,97560.53
2022-09-23T20:53:56.058Z,97560.53
2022-09-23T20:56:23.371Z,97557.78
2022-09-23T20:58:50.850Z,97561.63
2022-09-23T21:01:18.368Z,97558.38
2022-09-23T21:03:47.551Z,97556.19
2022-09-23T21:06:15.851Z,97549.66
2022-09-23T21:08:44.234Z,97545.88
2022-09-23T21:11:14.962Z,97543.88
2022-09-23T21:13:49.189Z,97541.88
2022-09-23T21:16:17.610Z,97538.97
2022-09-23T21:18:45.826Z,97542.63
2022-09-23T21:21:14.339Z,97541.34
2022-09-23T21:23:42.712Z,97545.34
2022-09-23T21:26:11.710Z,97535.00
2022-09-23T21:28:43.135Z,97536.47
2022-09-23T21:31:22.641Z,97544.81
2022-09-23T21:33:57.115Z,97543.38
2022-09-23T21:36:24.739Z,97533.19
2022-09-23T21:38:52.348Z,97543.19
2022-09-23T21:41:19.905Z,97541.56
2022-09-23T21:43:46.799Z,97541.56
2022-09-23T21:46:15.416Z,97535.59
2022-09-23T21:48:42.796Z,97537.75
2022-09-23T21:51:13.033Z,97535.22
2022-09-23T21:53:40.908Z,97539.22
2022-09-23T21:56:10.046Z,97537.78
2022-09-23T21:58:38.535Z,97539.94
2022-09-23T22:01:25.971Z,97537.75
2022-09-23T22:03:55.696Z,97537.03
2022-09-23T22:06:26.801Z,97541.94
2022-09-23T22:08:55.685Z,97533.41
2022-09-23T22:11:42.600Z,97535.41
2022-09-23T22:14:11.751Z,97531.41
2022-09-23T22:16:39.044Z,97531.63
2022-09-23T22:19:09.337Z,97536.69
2022-09-23T22:21:38.128Z,97535.22
2022-09-23T22:24:07.460Z,97536.13
2022-09-23T22:26:42.681Z,97534.84
2022-09-23T22:29:29.937Z,97537.94
2022-09-23T22:32:15.779Z,97534.88
2022-09-23T22:34:51.449Z,97544.31
2022-09-23T22:37:28.512Z,97547.03
2022-09-23T22:39:55.399Z,97548.47
2022-09-23T22:42:22.552Z,97541.59
2022-09-23T22:44:50.051Z,97539.06
2022-09-23T22:47:17.890Z,97549.03
2022-09-23T22:49:46.180Z,97543.59
2022-09-23T22:52:14.908Z,97542.31
2022-09-23T22:54:41.984Z,97542.31
2022-09-23T22:57:09.126Z,97542.16
2022-09-23T22:59:37.467Z,97539.06
2022-09-23T23:02:05.251Z,97536.50
2022-09-23T23:04:32.145Z,97534.69
2022-09-23T23:06:58.851Z,97535.22
2022-09-23T23:09:25.989Z,97530.69
2022-09-23T23:11:52.678Z,97543.75
2022-09-23T23:14:19.695Z,97536.69
2022-09-23T23:16:47.126Z,97541.41
2022-09-23T23:19:17.259Z,97531.03
2022-09-23T23:21:45.343Z,97527.06
2022-09-23T23:24:17.529Z,97522.31
2022-09-23T23:26:45.446Z,97526.50
2022-09-23T23:29:13.491Z,97521.78
2022-09-23T23:31:40.661Z,97528.88
2022-09-23T23:34:10.914Z,97521.78
2022-09-23T23:36:37.856Z,97538.50
2022-09-23T23:39:04.676Z,97527.97
2022-09-23T23:41:31.651Z,97530.16
2022-09-23T23:43:59.565Z,97520.88
2022-09-23T23:46:28.303Z,97525.06
2022-09-23T23:48:56.224Z,97528.69
2022-09-23T23:51:26.319Z,97528.50
2022-09-23T23:53:54.053Z,97529.22
2022-09-23T23:56:23.037Z,97519.06
2022-09-23T23:59:00.394Z,97518.31
